Time;durP1;ratioP1;P1;durP2;ratioP2;P2;SDS_P1;SDS_P2;PMS_P1;PMS_P2;Temp;Humidity;BMP_temperature;BMP_pressure;BME280_temperature;BME280_humidity;BME280_pressure;Samples;Min_cycle;Max_cycle;Signal;HPM_P1;HPM_P2
2021/08/23 00:01:16;;;;;;;35.20;21.02;;;15.80;99.90;;;;;;6148184;23;20013;-84
2021/08/23 00:03:43;;;;;;;35.35;20.92;;;15.80;99.90;;;;;;6121499;23;20021;-85
2021/08/23 00:06:09;;;;;;;36.30;20.95;;;15.90;99.90;;;;;;6120120;23;20014;-87
2021/08/23 00:08:34;;;;;;;29.15;19.02;;;15.80;99.90;;;;;;6143931;23;20139;-87
2021/08/23 00:11:04;;;;;;;34.97;19.85;;;15.80;99.90;;;;;;6093922;23;20080;-89
2021/08/23 00:13:30;;;;;;;35.92;21.35;;;15.80;99.90;;;;;;6143736;23;20525;-86
2021/08/23 00:15:56;;;;;;;31.55;18.80;;;15.80;99.90;;;;;;6144276;23;20051;-86
2021/08/23 00:18:25;;;;;;;32.08;19.55;;;15.80;99.90;;;;;;6118157;23;20013;-87
2021/08/23 00:20:55;;;;;;;32.67;20.25;;;15.80;99.90;;;;;;6119929;23;20017;-89
2021/08/23 00:23:24;;;;;;;39.78;20.30;;;15.80;99.90;;;;;;6119466;23;20017;-87
2021/08/23 00:25:54;;;;;;;35.67;20.00;;;15.80;99.90;;;;;;6143144;23;20013;-87
2021/08/23 00:28:20;;;;;;;36.75;20.23;;;15.80;99.90;;;;;;6142983;23;20508;-88
2021/08/23 00:30:47;;;;;;;37.58;20.42;;;15.80;99.90;;;;;;6148336;23;20013;-88
2021/08/23 00:33:14;;;;;;;31.80;18.67;;;15.80;99.90;;;;;;6148498;23;20076;-86
2021/08/23 00:35:40;;;;;;;31.40;18.38;;;15.80;99.90;;;;;;6132133;23;20018;-89
2021/08/23 00:38:09;;;;;;;28.20;17.92;;;15.80;99.90;;;;;;6152416;23;20027;-86
2021/08/23 00:40:36;;;;;;;32.28;18.45;;;15.80;99.90;;;;;;6148272;23;20009;-86
2021/08/23 00:43:09;;;;;;;35.22;18.38;;;15.80;99.90;;;;;;6144672;23;20021;-87
2021/08/23 00:45:35;;;;;;;;;;;15.80;99.90;;;;;;6121966;23;20013;-85
2021/08/23 00:48:00;;;;;;;33.85;18.35;;;15.90;99.90;;;;;;6095146;23;19931;-87
2021/08/23 00:50:26;;;;;;;36.60;17.70;;;15.90;99.90;;;;;;6094386;23;20017;-85
2021/08/23 00:52:52;;;;;;;27.65;17.52;;;15.80;99.90;;;;;;6142869;23;20014;-86
2021/08/23 00:55:18;;;;;;;35.05;18.55;;;15.90;99.90;;;;;;6143036;23;20041;-87
2021/08/23 00:57:44;;;;;;;30.80;18.50;;;15.90;99.90;;;;;;6117763;23;20089;-87
2021/08/23 01:00:11;;;;;;;34.38;19.40;;;15.90;99.90;;;;;;6143125;23;20021;-86
2021/08/23 01:03:02;;;;;;;28.20;17.70;;;15.90;99.90;;;;;;6144196;23;20478;-87
2021/08/23 01:05:31;;;;;;;26.00;18.38;;;15.90;99.90;;;;;;6094212;23;20100;-84
2021/08/23 01:08:10;;;;;;;25.77;17.15;;;16.00;99.90;;;;;;6141604;23;20014;-85
2021/08/23 01:10:46;;;;;;;30.02;17.48;;;16.00;99.90;;;;;;6153801;23;20045;-87
2021/08/23 01:13:12;;;;;;;32.03;18.63;;;16.00;99.90;;;;;;6144695;23;20014;-86
2021/08/23 01:15:38;;;;;;;32.65;18.88;;;16.00;99.90;;;;;;6143620;23;20048;-86
2021/08/23 01:18:04;;;;;;;31.15;19.02;;;16.00;99.90;;;;;;6120349;23;20017;-87
2021/08/23 01:20:38;;;;;;;36.85;19.45;;;16.00;99.90;;;;;;6120465;23;20014;-89
2021/08/23 01:23:05;;;;;;;31.52;19.30;;;16.00;99.90;;;;;;6144659;23;20032;-86
2021/08/23 01:25:35;;;;;;;29.55;18.67;;;16.00;99.90;;;;;;6096343;23;20009;-84
2021/08/23 01:28:17;;;;;;;32.88;20.13;;;16.00;99.90;;;;;;6146719;23;20040;-88
2021/08/23 01:31:09;;;;;;;33.50;20.97;;;16.10;99.90;;;;;;6154748;23;20033;-88
2021/08/23 01:33:36;;;;;;;32.33;20.05;;;16.10;99.90;;;;;;6145674;23;20041;-90
2021/08/23 01:36:02;;;;;;;33.05;20.50;;;16.00;99.90;;;;;;6145601;23;20060;-84
2021/08/23 01:38:29;;;;;;;36.47;19.33;;;16.00;99.90;;;;;;6144003;23;20021;-86
2021/08/23 01:41:02;;;;;;;34.28;19.23;;;16.10;99.90;;;;;;6144042;23;20093;-88
2021/08/23 01:43:28;;;;;;;40.40;19.30;;;16.00;99.90;;;;;;6144672;23;20088;-86
2021/08/23 01:45:54;;;;;;;34.25;17.45;;;16.00;99.90;;;;;;6119813;23;20013;-87
2021/08/23 01:48:21;;;;;;;32.55;18.27;;;16.00;99.90;;;;;;6143574;23;20022;-90
2021/08/23 01:50:47;;;;;;;31.02;17.90;;;16.00;99.90;;;;;;6119664;23;20172;-85
2021/08/23 01:53:15;;;;;;;23.73;15.75;;;16.10;99.90;;;;;;6144379;23;20013;-88
2021/08/23 01:55:43;;;;;;;27.38;15.98;;;16.00;99.90;;;;;;6118933;23;20009;-87
2021/08/23 01:58:09;;;;;;;33.10;16.48;;;16.00;99.90;;;;;;6143975;23;20025;-87
2021/08/23 02:00:35;;;;;;;35.45;17.67;;;16.00;99.90;;;;;;6119847;23;20010;-87
2021/08/23 02:03:01;;;;;;;27.90;16.40;;;16.00;99.90;;;;;;6143830;23;20398;-89
2021/08/23 02:05:28;;;;;;;26.10;15.85;;;16.00;99.90;;;;;;6097098;23;20327;-86
2021/08/23 02:07:55;;;;;;;31.20;16.50;;;16.00;99.90;;;;;;6143174;23;20009;-86
2021/08/23 02:10:21;;;;;;;29.90;16.30;;;16.00;99.90;;;;;;6117287;23;20022;-87
2021/08/23 02:12:47;;;;;;;29.48;16.33;;;16.00;99.90;;;;;;6118583;23;20061;-87
2021/08/23 02:15:13;;;;;;;25.45;15.20;;;16.00;99.90;;;;;;6119195;23;20552;-86
2021/08/23 02:17:39;;;;;;;30.48;16.25;;;16.00;99.90;;;;;;6096040;23;20013;-87
2021/08/23 02:20:09;;;;;;;25.25;14.55;;;16.00;99.90;;;;;;6119032;23;20083;-87
2021/08/23 02:22:36;;;;;;;26.63;15.60;;;16.00;99.90;;;;;;6144263;23;20033;-88
2021/08/23 02:25:06;;;;;;;24.08;14.68;;;16.00;99.90;;;;;;6144520;23;20013;-86
2021/08/23 02:27:33;;;;;;;29.15;16.08;;;16.00;99.90;;;;;;6119568;23;20422;-86
2021/08/23 02:29:59;;;;;;;27.70;14.82;;;16.00;99.90;;;;;;6118213;23;20014;-87
2021/08/23 02:32:27;;;;;;;24.25;13.63;;;16.00;99.90;;;;;;6143563;23;20025;-88
2021/08/23 02:34:54;;;;;;;28.00;15.77;;;16.00;99.90;;;;;;6121372;23;20045;-86
2021/08/23 02:37:21;;;;;;;29.70;14.77;;;16.00;99.90;;;;;;6144649;23;20014;-87
2021/08/23 02:39:47;;;;;;;25.58;14.85;;;16.00;99.90;;;;;;6144590;23;20021;-90
2021/08/23 02:42:13;;;;;;;28.10;13.65;;;16.00;99.90;;;;;;6096974;23;20017;-87
2021/08/23 02:44:39;;;;;;;25.23;13.13;;;16.00;99.90;;;;;;6144449;23;20092;-87
2021/08/23 02:47:04;;;;;;;26.35;13.57;;;16.00;99.90;;;;;;6143470;23;20092;-87
2021/08/23 02:49:30;;;;;;;21.45;12.55;;;15.90;99.90;;;;;;6143727;23;20525;-87
2021/08/23 02:51:56;;;;;;;18.55;12.13;;;16.00;99.90;;;;;;6142061;23;20017;-85
2021/08/23 02:54:31;;;;;;;23.30;12.38;;;15.90;99.90;;;;;;6142777;23;20017;-89
2021/08/23 02:56:57;;;;;;;23.25;11.98;;;15.90;99.90;;;;;;6153766;23;20013;-87
2021/08/23 02:59:23;;;;;;;21.30;11.38;;;15.90;99.90;;;;;;6105840;23;20024;-87
2021/08/23 03:01:49;;;;;;;17.42;10.88;;;15.90;99.90;;;;;;6123636;23;20069;-85
2021/08/23 03:04:15;;;;;;;21.25;11.45;;;15.90;99.90;;;;;;6141865;23;20298;-86
2021/08/23 03:06:41;;;;;;;24.50;10.57;;;15.90;99.90;;;;;;6119434;23;20356;-87
2021/08/23 03:09:07;;;;;;;18.83;9.63;;;15.90;99.90;;;;;;6143577;23;20017;-87
2021/08/23 03:11:36;;;;;;;20.55;10.70;;;15.90;99.90;;;;;;6143284;23;20045;-87
2021/08/23 03:14:03;;;;;;;22.23;10.57;;;15.90;99.90;;;;;;6119996;23;20013;-88
2021/08/23 03:16:29;;;;;;;15.40;9.60;;;15.90;99.90;;;;;;6143304;23;20013;-86
2021/08/23 03:18:55;;;;;;;18.88;10.20;;;15.90;99.90;;;;;;6143651;23;20407;-87
2021/08/23 03:21:21;;;;;;;18.80;9.65;;;15.90;99.90;;;;;;6142408;23;20339;-86
2021/08/23 03:23:47;;;;;;;20.42;9.93;;;15.90;99.90;;;;;;6144700;23;20014;-86
2021/08/23 03:26:13;;;;;;;18.35;9.85;;;15.90;99.90;;;;;;6118704;23;20495;-86
2021/08/23 03:28:39;;;;;;;20.23;9.70;;;15.90;99.90;;;;;;6123479;23;20013;-89
2021/08/23 03:31:06;;;;;;;19.90;9.52;;;15.90;99.90;;;;;;6121633;23;20036;-88
2021/08/23 03:33:33;;;;;;;16.58;9.32;;;15.90;99.90;;;;;;6145951;23;20017;-86
2021/08/23 03:36:00;;;;;;;17.23;9.75;;;15.90;99.90;;;;;;6146551;23;20020;-86
2021/08/23 03:38:26;;;;;;;16.83;9.20;;;15.90;99.90;;;;;;6145665;23;20017;-86
2021/08/23 03:40:52;;;;;;;25.33;10.00;;;15.90;99.90;;;;;;6147557;23;20010;-86
2021/08/23 03:43:18;;;;;;;14.40;8.52;;;15.90;99.90;;;;;;6120797;23;20013;-86
2021/08/23 03:45:44;;;;;;;14.85;8.57;;;15.90;99.90;;;;;;6144830;23;20071;-86
2021/08/23 03:48:10;;;;;;;16.30;9.10;;;15.90;99.90;;;;;;6119122;23;20144;-87
2021/08/23 03:50:36;;;;;;;17.73;8.55;;;15.90;99.90;;;;;;6141015;23;20024;-86
2021/08/23 03:53:02;;;;;;;14.88;7.82;;;15.80;99.90;;;;;;6145967;23;20036;-86
2021/08/23 03:55:28;;;;;;;15.73;8.82;;;15.80;99.90;;;;;;6142132;23;20019;-86
2021/08/23 03:57:53;;;;;;;18.10;9.02;;;15.80;99.90;;;;;;6117722;23;20329;-85
2021/08/23 04:00:19;;;;;;;16.50;9.65;;;15.80;99.90;;;;;;6143865;23;20346;-86
2021/08/23 04:02:45;;;;;;;20.58;9.63;;;15.90;99.90;;;;;;6122215;23;20021;-86
2021/08/23 04:05:11;;;;;;;18.52;8.88;;;15.80;99.90;;;;;;6147002;23;20071;-86
2021/08/23 04:07:37;;;;;;;24.15;8.68;;;15.80;99.90;;;;;;6145693;23;20103;-87
2021/08/23 04:10:04;;;;;;;14.13;8.90;;;15.80;99.90;;;;;;6147279;23;20021;-87
2021/08/23 04:12:32;;;;;;;19.08;9.85;;;15.80;99.90;;;;;;6148970;23;20089;-87
2021/08/23 04:15:00;;;;;;;16.98;9.90;;;15.80;99.90;;;;;;6147608;23;20463;-86
2021/08/23 04:17:26;;;;;;;17.08;9.90;;;15.80;99.90;;;;;;6144636;23;20013;-86
2021/08/23 04:19:52;;;;;;;16.00;8.82;;;15.80;99.90;;;;;;6122680;23;20446;-87
2021/08/23 04:22:18;;;;;;;16.90;8.85;;;15.80;99.90;;;;;;6094834;23;20018;-86
2021/08/23 04:24:44;;;;;;;14.65;9.07;;;15.80;99.90;;;;;;6118320;23;20028;-87
2021/08/23 04:27:10;;;;;;;21.25;9.80;;;15.80;99.90;;;;;;6143006;23;20060;-87
2021/08/23 04:29:36;;;;;;;19.30;9.98;;;15.80;99.90;;;;;;6142880;23;20014;-87
2021/08/23 04:32:02;;;;;;;22.13;9.98;;;15.80;99.90;;;;;;6115620;23;20423;-88
2021/08/23 04:34:28;;;;;;;19.50;9.15;;;15.80;99.90;;;;;;6119766;23;20021;-87
2021/08/23 04:36:55;;;;;;;18.13;8.80;;;15.80;99.90;;;;;;6119035;23;20462;-87
2021/08/23 04:39:20;;;;;;;17.52;9.68;;;15.80;99.90;;;;;;6119796;23;20028;-87
2021/08/23 04:41:46;;;;;;;15.57;9.10;;;15.80;99.90;;;;;;6118313;23;20088;-86
2021/08/23 04:44:12;;;;;;;17.13;9.20;;;15.80;99.90;;;;;;6117722;23;20016;-87
2021/08/23 04:46:38;;;;;;;20.17;9.15;;;15.80;99.90;;;;;;6145280;23;20048;-86
2021/08/23 04:49:04;;;;;;;18.98;10.07;;;15.80;99.90;;;;;;6121957;23;20137;-87
2021/08/23 04:51:31;;;;;;;19.88;10.15;;;15.80;99.90;;;;;;6144732;23;20026;-85
2021/08/23 04:53:56;;;;;;;15.32;9.13;;;15.80;99.90;;;;;;6144868;23;20013;-86
2021/08/23 04:56:22;;;;;;;27.77;10.27;;;15.80;99.90;;;;;;6144920;23;20128;-86
2021/08/23 04:58:48;;;;;;;17.17;10.10;;;15.80;99.90;;;;;;6120477;23;20104;-86
2021/08/23 05:01:14;;;;;;;16.88;9.98;;;15.80;99.90;;;;;;6145718;23;20492;-86
2021/08/23 05:03:41;;;;;;;20.17;10.55;;;15.80;99.90;;;;;;6144900;23;20013;-87
2021/08/23 05:06:06;;;;;;;18.65;10.43;;;15.80;99.90;;;;;;6120129;23;20323;-86
2021/08/23 05:08:32;;;;;;;26.98;10.20;;;15.80;99.90;;;;;;6120536;23;20370;-86
2021/08/23 05:10:58;;;;;;;20.88;9.93;;;15.80;99.90;;;;;;6147069;23;20025;-85
2021/08/23 05:13:24;;;;;;;27.15;10.50;;;15.80;99.90;;;;;;6145556;23;20029;-86
2021/08/23 05:15:50;;;;;;;19.20;9.30;;;15.80;99.90;;;;;;6145130;23;20056;-87
2021/08/23 05:18:16;;;;;;;19.65;10.02;;;15.80;99.90;;;;;;6096905;23;20009;-86
2021/08/23 05:20:42;;;;;;;18.13;9.57;;;15.80;99.90;;;;;;6130394;23;20476;-86
2021/08/23 05:23:08;;;;;;;22.35;10.70;;;15.80;99.90;;;;;;6147853;23;20088;-86
2021/08/23 05:25:36;;;;;;;15.93;8.82;;;15.80;99.90;;;;;;6144209;23;20041;-89
2021/08/23 05:28:06;;;;;;;21.35;10.00;;;15.80;99.90;;;;;;6072318;23;20029;-85
2021/08/23 05:30:36;;;;;;;15.05;9.73;;;15.80;99.90;;;;;;6118008;23;20101;-88
2021/08/23 05:33:02;;;;;;;18.33;8.73;;;15.80;99.90;;;;;;6090564;23;20013;-85
2021/08/23 05:35:28;;;;;;;18.02;8.82;;;15.80;99.90;;;;;;6140840;23;20481;-85
2021/08/23 05:37:54;;;;;;;18.90;8.30;;;15.80;99.90;;;;;;6141618;23;20022;-86
2021/08/23 05:40:23;;;;;;;17.20;8.20;;;15.80;99.90;;;;;;6138408;23;20025;-86
2021/08/23 05:42:52;;;;;;;17.05;8.00;;;15.80;99.90;;;;;;6111788;23;20014;-84
2021/08/23 05:45:45;;;;;;;17.50;8.18;;;15.80;99.90;;;;;;6135909;23;20754;-87
2021/08/23 05:48:16;;;;;;;19.75;9.02;;;15.80;99.90;;;;;;6135693;23;20013;-86
2021/08/23 05:50:42;;;;;;;16.92;8.63;;;15.80;99.90;;;;;;6093495;23;20052;-86
2021/08/23 05:53:08;;;;;;;17.00;8.90;;;15.90;99.90;;;;;;6093005;23;20010;-86
2021/08/23 05:55:34;;;;;;;17.33;7.97;;;15.90;99.90;;;;;;6116313;23;20040;-87
2021/08/23 05:58:00;;;;;;;14.50;7.72;;;15.90;99.90;;;;;;6115587;23;20018;-86
2021/08/23 06:00:26;;;;;;;18.63;8.98;;;16.00;99.90;;;;;;6115495;23;20045;-85
2021/08/23 06:02:52;;;;;;;18.25;8.73;;;16.00;99.90;;;;;;6090927;23;20080;-85
2021/08/23 06:05:17;;;;;;;16.55;7.43;;;16.10;99.90;;;;;;6116505;23;20022;-87
2021/08/23 06:07:43;;;;;;;16.23;7.75;;;16.10;99.90;;;;;;6092310;23;20489;-87
2021/08/23 06:10:13;;;;;;;19.38;8.38;;;16.20;99.90;;;;;;6092259;23;20348;-86
2021/08/23 06:12:39;;;;;;;13.98;7.60;;;16.20;99.90;;;;;;6092729;23;20332;-87
2021/08/23 06:15:06;;;;;;;14.68;7.15;;;16.20;99.90;;;;;;6093066;23;20025;-86
2021/08/23 06:17:32;;;;;;;20.90;7.70;;;16.20;99.90;;;;;;6116450;23;20032;-86
2021/08/23 06:19:57;;;;;;;13.02;7.43;;;16.20;99.90;;;;;;6091940;23;20025;-86
2021/08/23 06:22:23;;;;;;;15.88;8.38;;;16.20;99.90;;;;;;6142058;23;20145;-84
2021/08/23 06:24:52;;;;;;;21.35;7.60;;;16.20;99.90;;;;;;6115258;23;20475;-85
2021/08/23 06:27:19;;;;;;;20.10;7.53;;;16.20;99.90;;;;;;6116772;23;20022;-88
2021/08/23 06:29:45;;;;;;;14.48;7.32;;;16.20;99.90;;;;;;6116468;23;20017;-86
2021/08/23 06:32:11;;;;;;;15.27;6.80;;;16.20;99.90;;;;;;6093483;23;20076;-86
2021/08/23 06:34:37;;;;;;;18.50;7.22;;;16.30;99.90;;;;;;6141247;23;20105;-86
2021/08/23 06:37:03;;;;;;;23.23;8.23;;;16.30;99.90;;;;;;6117344;23;20018;-85
2021/08/23 06:39:29;;;;;;;18.70;7.32;;;16.30;99.90;;;;;;6147346;23;20076;-87
2021/08/23 06:41:55;;;;;;;17.33;6.65;;;16.30;99.90;;;;;;6142148;23;20017;-85
2021/08/23 06:44:21;;;;;;;15.02;7.13;;;16.30;99.90;;;;;;6144496;23;20346;-86
2021/08/23 06:46:47;;;;;;;19.58;7.10;;;16.30;99.90;;;;;;6118857;23;20013;-87
2021/08/23 06:49:14;;;;;;;15.90;7.03;;;16.40;99.90;;;;;;6145823;23;20017;-87
2021/08/23 06:51:39;;;;;;;16.75;6.70;;;16.40;99.90;;;;;;6119102;23;20520;-86
2021/08/23 06:54:06;;;;;;;16.80;6.00;;;16.40;99.90;;;;;;6121928;23;20068;-86
2021/08/23 06:56:32;;;;;;;12.63;6.15;;;16.40;99.90;;;;;;6147515;23;20016;-89
2021/08/23 06:58:58;;;;;;;9.40;6.43;;;16.50;99.90;;;;;;6098708;23;20633;-86
2021/08/23 07:01:26;;;;;;;10.43;6.68;;;16.50;99.90;;;;;;6123285;23;20075;-89
2021/08/23 07:03:55;;;;;;;13.23;6.88;;;16.50;99.90;;;;;;6124170;23;20014;-89
2021/08/23 07:06:22;;;;;;;13.88;5.88;;;16.50;99.90;;;;;;6146309;23;20014;-91
2021/08/23 07:08:48;;;;;;;13.52;6.63;;;16.50;99.90;;;;;;6149285;23;20021;-87
2021/08/23 07:11:16;;;;;;;19.55;6.18;;;16.60;99.90;;;;;;6124805;23;20013;-90
2021/08/23 07:13:42;;;;;;;15.85;6.13;;;16.60;99.90;;;;;;6122959;23;20045;-90
2021/08/23 07:16:08;;;;;;;15.63;6.82;;;16.60;99.90;;;;;;6121913;23;20036;-92
2021/08/23 07:18:34;;;;;;;15.90;5.75;;;16.60;99.90;;;;;;6117655;23;20045;-89
2021/08/23 07:21:00;;;;;;;12.80;6.05;;;16.70;99.90;;;;;;6122453;23;20083;-88
2021/08/23 07:23:27;;;;;;;11.73;4.75;;;16.70;99.90;;;;;;6146131;23;20070;-88
2021/08/23 07:26:19;;;;;;;11.35;4.53;;;16.80;99.90;;;;;;6144002;23;20350;-89
2021/08/23 07:28:45;;;;;;;11.88;5.10;;;16.80;99.90;;;;;;6121065;23;20473;-90
2021/08/23 07:31:15;;;;;;;8.55;4.50;;;16.80;99.90;;;;;;6120547;23;20097;-90
2021/08/23 07:33:41;;;;;;;8.73;4.75;;;16.80;99.90;;;;;;6093089;23;20040;-89
2021/08/23 07:36:07;;;;;;;9.82;4.18;;;16.80;99.90;;;;;;6142618;23;20021;-90
2021/08/23 07:38:33;;;;;;;10.48;4.68;;;16.80;99.90;;;;;;6117351;23;20017;-87
2021/08/23 07:41:03;;;;;;;7.13;4.03;;;16.80;99.90;;;;;;6116804;23;20049;-89
2021/08/23 07:43:40;;;;;;;16.48;4.68;;;16.80;99.90;;;;;;6118815;23;20040;-89
2021/08/23 07:46:08;;;;;;;10.18;4.10;;;16.80;99.90;;;;;;6094277;23;20013;-88
2021/08/23 07:48:34;;;;;;;11.82;4.68;;;16.80;99.90;;;;;;6119360;23;20020;-91
2021/08/23 07:51:03;;;;;;;9.73;4.03;;;16.80;99.90;;;;;;6118391;23;20025;-92
2021/08/23 07:53:29;;;;;;;9.40;4.68;;;16.80;99.90;;;;;;6118103;23;20013;-87
2021/08/23 07:55:55;;;;;;;8.20;4.22;;;16.80;99.90;;;;;;6118360;23;20032;-87
2021/08/23 07:58:21;;;;;;;10.35;4.32;;;16.80;99.90;;;;;;6117098;23;20462;-88
2021/08/23 08:00:48;;;;;;;8.73;4.15;;;16.90;99.90;;;;;;6141185;23;20529;-87
2021/08/23 08:03:14;;;;;;;9.20;4.30;;;17.00;99.90;;;;;;6117963;23;20013;-89
2021/08/23 08:05:40;;;;;;;11.13;3.55;;;17.00;99.90;;;;;;6120131;23;20036;-88
2021/08/23 08:08:07;;;;;;;8.07;3.53;;;17.00;99.90;;;;;;6117569;23;20536;-89
2021/08/23 08:10:37;;;;;;;7.15;3.03;;;17.00;99.90;;;;;;6118995;23;20085;-87
2021/08/23 08:13:08;;;;;;;7.47;3.20;;;17.00;99.90;;;;;;6142025;23;20079;-89
2021/08/23 08:15:34;;;;;;;7.68;2.72;;;17.00;99.90;;;;;;6143549;23;20017;-88
2021/08/23 08:18:04;;;;;;;9.73;3.50;;;16.90;99.90;;;;;;6143438;23;20013;-88
2021/08/23 08:20:31;;;;;;;6.90;3.00;;;16.90;99.90;;;;;;6118483;23;20411;-86
2021/08/23 08:22:57;;;;;;;6.60;2.65;;;17.00;99.90;;;;;;6143577;23;20013;-87
2021/08/23 08:25:25;;;;;;;7.70;2.60;;;17.20;99.90;;;;;;6120980;23;20332;-86
2021/08/23 08:27:51;;;;;;;5.35;2.25;;;17.30;99.90;;;;;;6119478;23;20477;-87
2021/08/23 08:30:20;;;;;;;5.70;2.00;;;17.40;99.90;;;;;;6118800;23;20374;-87
2021/08/23 08:32:46;;;;;;;3.90;2.10;;;17.50;99.90;;;;;;6144992;23;20425;-90
2021/08/23 08:35:12;;;;;;;6.30;2.67;;;17.60;99.90;;;;;;6142967;23;20013;-86
2021/08/23 08:37:39;;;;;;;6.85;2.75;;;17.70;99.90;;;;;;6116400;23;20011;-89
2021/08/23 08:40:07;;;;;;;7.10;2.70;;;17.80;99.90;;;;;;6118434;23;20017;-87
2021/08/23 08:42:42;;;;;;;8.00;2.78;;;17.80;99.90;;;;;;6144231;23;20446;-86
2021/08/23 08:45:10;;;;;;;4.43;2.47;;;17.90;99.90;;;;;;6118417;23;20088;-87
2021/08/23 08:47:40;;;;;;;13.75;2.88;;;18.00;99.90;;;;;;6143975;23;20064;-89
2021/08/23 08:50:07;;;;;;;4.75;2.22;;;18.00;99.90;;;;;;6143313;23;20041;-89
2021/08/23 08:52:34;;;;;;;5.03;2.90;;;18.00;99.90;;;;;;6143443;23;20023;-87
2021/08/23 08:55:08;;;;;;;8.85;2.28;;;18.00;99.90;;;;;;6119594;23;20088;-88
2021/08/23 08:57:34;;;;;;;21.23;2.70;;;18.10;99.90;;;;;;6119043;23;20048;-87
2021/08/23 09:00:00;;;;;;;9.80;2.10;;;18.10;99.90;;;;;;6119832;23;20029;-90
2021/08/23 09:02:26;;;;;;;5.55;2.10;;;18.20;99.90;;;;;;6119662;23;20021;-88
2021/08/23 09:04:54;;;;;;;5.90;1.98;;;18.30;99.80;;;;;;6141730;23;20024;-89
2021/08/23 09:07:21;;;;;;;3.80;2.10;;;18.40;98.70;;;;;;6116645;23;20048;-90
2021/08/23 09:09:47;;;;;;;3.20;1.90;;;18.40;98.20;;;;;;6121228;23;20013;-89
2021/08/23 09:12:15;;;;;;;7.13;2.10;;;18.40;97.80;;;;;;6122866;23;20017;-87
2021/08/23 09:14:54;;;;;;;8.90;2.58;;;18.40;97.80;;;;;;6094873;23;20017;-88
2021/08/23 09:17:26;;;;;;;4.10;2.05;;;18.50;98.10;;;;;;6144511;23;20385;-87
2021/08/23 09:20:00;;;;;;;5.07;2.20;;;18.40;97.90;;;;;;6141316;23;20021;-90
2021/08/23 09:22:41;;;;;;;6.28;2.30;;;18.50;98.00;;;;;;6142334;23;20379;-88
2021/08/23 09:25:12;;;;;;;4.25;1.80;;;18.50;98.00;;;;;;6121503;23;20335;-88
2021/08/23 09:28:08;;;;;;;3.50;1.80;;;18.50;96.60;;;;;;6124012;23;20018;-88
2021/08/23 09:30:36;;;;;;;9.95;2.28;;;18.50;96.60;;;;;;6122781;23;20017;-87
2021/08/23 09:33:05;;;;;;;7.25;2.10;;;18.60;96.80;;;;;;6144420;23;20125;-89
2021/08/23 09:35:52;;;;;;;6.80;2.08;;;18.60;97.00;;;;;;6129851;23;20029;-89
2021/08/23 09:38:28;;;;;;;4.00;2.33;;;18.70;96.30;;;;;;6133275;23;20101;-89
2021/08/23 09:41:02;;;;;;;8.60;2.08;;;18.70;96.00;;;;;;6144244;23;20041;-90
2021/08/23 09:43:31;;;;;;;4.80;2.42;;;18.80;95.90;;;;;;6140916;23;20305;-89
2021/08/23 09:46:12;;;;;;;4.60;2.08;;;18.80;95.50;;;;;;6142114;23;20024;-85
2021/08/23 09:48:53;;;;;;;5.20;2.20;;;18.80;95.60;;;;;;6140452;23;20021;-90
2021/08/23 09:51:27;;;;;;;3.28;1.90;;;18.80;95.80;;;;;;6141334;23;20014;-87
2021/08/23 09:54:08;;;;;;;9.27;2.20;;;18.70;95.40;;;;;;6117497;23;20017;-88
2021/08/23 09:56:35;;;;;;;8.73;2.00;;;18.70;94.30;;;;;;6142460;23;20039;-86
2021/08/23 09:59:05;;;;;;;3.88;1.83;;;18.80;94.40;;;;;;6117801;23;20073;-88
2021/08/23 10:01:43;;;;;;;5.55;1.90;;;18.80;92.70;;;;;;6141490;23;20041;-87
2021/08/23 10:04:11;;;;;;;6.22;2.00;;;18.80;93.60;;;;;;6117580;23;20100;-88
2021/08/23 10:06:39;;;;;;;6.88;1.67;;;18.90;92.90;;;;;;6143306;23;20607;-87
2021/08/23 10:09:06;;;;;;;6.28;1.80;;;18.90;93.10;;;;;;6142161;23;20406;-88
2021/08/23 10:11:48;;;;;;;3.33;1.75;;;18.90;93.30;;;;;;6119897;23;20017;-89
2021/08/23 10:14:16;;;;;;;3.65;1.80;;;19.00;93.20;;;;;;6121904;23;20513;-90
2021/08/23 10:16:44;;;;;;;2.25;1.45;;;18.90;92.60;;;;;;6118002;23;20413;-88
2021/08/23 10:19:10;;;;;;;3.85;1.77;;;19.00;91.90;;;;;;6143671;23;20042;-87
2021/08/23 10:21:41;;;;;;;4.50;1.63;;;19.00;92.00;;;;;;6118984;23;20021;-88
2021/08/23 10:24:09;;;;;;;3.17;1.52;;;19.10;92.50;;;;;;6142619;23;20462;-87
2021/08/23 10:26:44;;;;;;;4.25;1.80;;;19.10;92.40;;;;;;6142657;23;20350;-89
2021/08/23 10:29:11;;;;;;;5.78;1.75;;;19.10;91.90;;;;;;6121296;23;20398;-88
2021/08/23 10:31:41;;;;;;;4.53;2.10;;;19.20;91.50;;;;;;6118302;23;20262;-88
2021/08/23 10:34:15;;;;;;;3.33;1.63;;;19.20;91.10;;;;;;6142171;23;20321;-87
2021/08/23 10:36:43;;;;;;;5.22;1.80;;;19.20;90.80;;;;;;6140691;23;20480;-87
2021/08/23 10:39:09;;;;;;;3.30;1.67;;;19.20;89.60;;;;;;6094262;23;20017;-87
2021/08/23 10:41:36;;;;;;;5.32;1.55;;;19.30;90.00;;;;;;6141764;23;20021;-89
2021/08/23 10:44:04;;;;;;;2.90;1.55;;;19.30;87.70;;;;;;6142858;23;20044;-86
2021/08/23 10:46:36;;;;;;;2.65;1.48;;;19.30;88.20;;;;;;6144884;23;20096;-87
2021/08/23 10:49:16;;;;;;;3.78;1.58;;;19.30;89.00;;;;;;6142700;23;20014;-87
2021/08/23 10:51:56;;;;;;;4.10;1.75;;;19.40;89.10;;;;;;6127117;23;20013;-87
2021/08/23 10:54:24;;;;;;;6.95;1.80;;;19.40;85.30;;;;;;6140143;23;20044;-89
2021/08/23 10:57:12;;;;;;;5.70;2.00;;;19.40;88.00;;;;;;6142632;23;20021;-87
2021/08/23 10:59:41;;;;;;;9.60;1.95;;;19.50;87.90;;;;;;6141441;23;20022;-89
2021/08/23 11:02:32;;;;;;;28.48;4.47;;;19.50;88.00;;;;;;6140130;23;20013;-89
2021/08/23 11:05:07;;;;;;;16.30;2.97;;;19.50;86.80;;;;;;6145503;23;20018;-89
2021/08/23 11:07:42;;;;;;;6.35;2.30;;;19.70;86.50;;;;;;6142198;23;20025;-91
2021/08/23 11:10:14;;;;;;;16.67;3.47;;;19.70;86.20;;;;;;6152327;23;20085;-93
2021/08/23 11:12:45;;;;;;;17.92;4.75;;;19.70;82.70;;;;;;6119684;23;20013;-87
2021/08/23 11:15:16;;;;;;;32.40;6.75;;;19.70;83.70;;;;;;6142163;23;20017;-87
2021/08/23 11:17:45;;;;;;;5.25;2.08;;;19.80;82.90;;;;;;6139961;23;20025;-87
2021/08/23 11:20:21;;;;;;;25.33;3.55;;;19.80;83.60;;;;;;6117917;23;20084;-88
2021/08/23 11:22:58;;;;;;;18.15;2.83;;;19.80;85.00;;;;;;6150831;23;20088;-87
2021/08/23 11:25:32;;;;;;;8.85;2.83;;;19.80;85.30;;;;;;6119212;23;20068;-89
2021/08/23 11:28:00;;;;;;;2.25;1.38;;;19.90;83.00;;;;;;6142742;23;20402;-90
2021/08/23 11:30:35;;;;;;;3.55;1.38;;;19.90;83.70;;;;;;6141934;23;20009;-88
2021/08/23 11:33:01;;;;;;;2.53;1.33;;;19.90;82.20;;;;;;6141632;23;20394;-87
2021/08/23 11:35:27;;;;;;;4.53;1.50;;;20.00;81.90;;;;;;6140353;23;20382;-88
2021/08/23 11:38:05;;;;;;;4.60;1.75;;;20.00;80.90;;;;;;6093010;23;20017;-89
2021/08/23 11:40:39;;;;;;;3.47;1.55;;;20.10;81.10;;;;;;6142655;23;20022;-86
2021/08/23 11:43:08;;;;;;;4.22;1.20;;;20.10;81.70;;;;;;6115400;23;20025;-88
2021/08/23 11:45:43;;;;;;;10.85;1.75;;;20.10;81.40;;;;;;6141174;23;20017;-90
2021/08/23 11:48:10;;;;;;;8.75;2.10;;;20.20;82.10;;;;;;6139717;23;20443;-87
2021/08/23 11:50:36;;;;;;;7.93;1.52;;;20.30;81.80;;;;;;6140109;23;20043;-90
2021/08/23 11:53:12;;;;;;;2.75;1.50;;;20.30;81.80;;;;;;6115403;23;20350;-89
2021/08/23 11:55:41;;;;;;;3.25;1.60;;;20.40;82.50;;;;;;6111775;23;20108;-87
2021/08/23 11:58:11;;;;;;;4.93;1.40;;;20.50;82.10;;;;;;6139717;23;20006;-89
2021/08/23 12:00:40;;;;;;;3.53;1.70;;;20.50;82.40;;;;;;6137854;23;20080;-88
2021/08/23 12:03:12;;;;;;;4.78;1.70;;;20.60;83.60;;;;;;6140987;23;20026;-87
2021/08/23 12:05:40;;;;;;;3.95;1.60;;;20.70;82.90;;;;;;6140775;23;20018;-88
2021/08/23 12:08:09;;;;;;;2.92;1.52;;;20.70;82.40;;;;;;6139109;23;20017;-87
2021/08/23 12:10:38;;;;;;;6.32;2.80;;;20.70;81.30;;;;;;6143998;23;20024;-91
2021/08/23 12:13:18;;;;;;;5.88;3.38;;;20.70;82.90;;;;;;6117702;23;20037;-89
2021/08/23 12:15:52;;;;;;;3.75;1.60;;;20.90;80.70;;;;;;6116031;23;20545;-89
2021/08/23 12:18:29;;;;;;;3.13;1.55;;;20.90;81.80;;;;;;6142510;23;20018;-89
2021/08/23 12:21:07;;;;;;;4.50;1.55;;;20.90;82.80;;;;;;6127249;23;20116;-88
2021/08/23 12:23:52;;;;;;;4.13;1.80;;;20.90;84.60;;;;;;6138620;23;20390;-86
2021/08/23 12:26:29;;;;;;;5.28;1.92;;;20.90;83.90;;;;;;6138623;23;20060;-88
2021/08/23 12:28:58;;;;;;;3.67;1.75;;;20.80;84.10;;;;;;6138871;23;20111;-88
2021/08/23 12:31:24;;;;;;;3.58;1.70;;;20.70;84.20;;;;;;6142042;23;20028;-87
2021/08/23 12:33:51;;;;;;;3.95;1.60;;;20.80;84.70;;;;;;6146350;23;20526;-87
2021/08/23 12:36:19;;;;;;;3.33;1.80;;;20.90;84.40;;;;;;6117991;23;20033;-89
2021/08/23 12:38:46;;;;;;;4.10;1.75;;;21.00;84.40;;;;;;6116489;23;20372;-85
2021/08/23 12:41:13;;;;;;;2.67;1.35;;;20.90;83.30;;;;;;6140860;23;20018;-90
2021/08/23 12:43:43;;;;;;;3.28;1.75;;;21.00;83.90;;;;;;6143785;23;20104;-88
2021/08/23 12:46:09;;;;;;;4.47;1.60;;;21.00;84.50;;;;;;6141728;23;20024;-89